sensor_id;sensor_type;location;lat;lon;timestamp;P1;durP1;ratioP1;P2;durP2;ratioP2
15563;SDS011;7883;52.554;13.364;2023-05-07T00:02:07;16.10;;;10.23;;
15563;SDS011;7883;52.554;13.364;2023-05-07T00:04:34;16.43;;;10.80;;
15563;SDS011;7883;52.554;13.364;2023-05-07T00:07:02;16.30;;;10.93;;
15563;SDS011;7883;52.554;13.364;2023-05-07T00:09:31;14.83;;;10.27;;
15563;SDS011;7883;52.554;13.364;2023-05-07T00:11:57;16.83;;;11.10;;
15563;SDS011;7883;52.554;13.364;2023-05-07T00:14:24;18.10;;;10.60;;
15563;SDS011;7883;52.554;13.364;2023-05-07T00:16:51;14.27;;;9.90;;
15563;SDS011;7883;52.554;13.364;2023-05-07T00:19:18;17.57;;;10.37;;
15563;SDS011;7883;52.554;13.364;2023-05-07T00:21:45;15.27;;;10.17;;
15563;SDS011;7883;52.554;13.364;2023-05-07T00:24:12;15.83;;;10.20;;
15563;SDS011;7883;52.554;13.364;2023-05-07T00:26:41;14.10;;;9.07;;
15563;SDS011;7883;52.554;13.364;2023-05-07T00:29:08;15.43;;;9.40;;
15563;SDS011;7883;52.554;13.364;2023-05-07T00:31:35;14.50;;;9.80;;
15563;SDS011;7883;52.554;13.364;2023-05-07T00:34:02;14.27;;;9.33;;
15563;SDS011;7883;52.554;13.364;2023-05-07T00:36:29;12.87;;;9.33;;
15563;SDS011;7883;52.554;13.364;2023-05-07T00:38:56;14.33;;;9.73;;
15563;SDS011;7883;52.554;13.364;2023-05-07T00:41:25;14.77;;;9.73;;
15563;SDS011;7883;52.554;13.364;2023-05-07T00:43:53;13.17;;;9.37;;
15563;SDS011;7883;52.554;13.364;2023-05-07T00:46:20;16.37;;;9.77;;
15563;SDS011;7883;52.554;13.364;2023-05-07T00:48:47;14.67;;;9.57;;
15563;SDS011;7883;52.554;13.364;2023-05-07T00:51:16;13.67;;;8.93;;
15563;SDS011;7883;52.554;13.364;2023-05-07T00:53:43;15.07;;;9.90;;
15563;SDS011;7883;52.554;13.364;2023-05-07T00:56:10;14.73;;;9.13;;
15563;SDS011;7883;52.554;13.364;2023-05-07T00:58:38;14.83;;;9.20;;
15563;SDS011;7883;52.554;13.364;2023-05-07T01:01:06;13.73;;;8.77;;
15563;SDS011;7883;52.554;13.364;2023-05-07T01:03:33;14.20;;;8.90;;
15563;SDS011;7883;52.554;13.364;2023-05-07T01:06:00;13.67;;;9.70;;
15563;SDS011;7883;52.554;13.364;2023-05-07T01:08:27;12.37;;;8.80;;
15563;SDS011;7883;52.554;13.364;2023-05-07T01:10:55;14.43;;;9.43;;
15563;SDS011;7883;52.554;13.364;2023-05-07T01:13:23;14.93;;;9.70;;
15563;SDS011;7883;52.554;13.364;2023-05-07T01:15:51;15.53;;;9.47;;
15563;SDS011;7883;52.554;13.364;2023-05-07T01:18:19;14.80;;;9.27;;
15563;SDS011;7883;52.554;13.364;2023-05-07T01:20:46;13.87;;;9.30;;
15563;SDS011;7883;52.554;13.364;2023-05-07T01:23:15;16.97;;;9.70;;
15563;SDS011;7883;52.554;13.364;2023-05-07T01:25:44;14.27;;;9.87;;
15563;SDS011;7883;52.554;13.364;2023-05-07T01:28:17;14.93;;;9.97;;
15563;SDS011;7883;52.554;13.364;2023-05-07T01:30:45;14.27;;;9.57;;
15563;SDS011;7883;52.554;13.364;2023-05-07T01:33:15;16.53;;;9.73;;
15563;SDS011;7883;52.554;13.364;2023-05-07T01:35:47;13.53;;;9.90;;
15563;SDS011;7883;52.554;13.364;2023-05-07T01:38:17;15.53;;;9.13;;
15563;SDS011;7883;52.554;13.364;2023-05-07T01:40:45;14.43;;;9.07;;
15563;SDS011;7883;52.554;13.364;2023-05-07T01:43:12;15.20;;;9.87;;
15563;SDS011;7883;52.554;13.364;2023-05-07T01:45:39;13.33;;;9.70;;
15563;SDS011;7883;52.554;13.364;2023-05-07T01:48:07;14.40;;;10.00;;
15563;SDS011;7883;52.554;13.364;2023-05-07T01:50:35;12.57;;;8.27;;
15563;SDS011;7883;52.554;13.364;2023-05-07T01:53:04;14.43;;;9.37;;
15563;SDS011;7883;52.554;13.364;2023-05-07T01:55:33;14.10;;;9.13;;
15563;SDS011;7883;52.554;13.364;2023-05-07T01:58:03;14.20;;;9.60;;
15563;SDS011;7883;52.554;13.364;2023-05-07T02:00:29;14.30;;;9.40;;
15563;SDS011;7883;52.554;13.364;2023-05-07T02:02:57;13.30;;;9.00;;
15563;SDS011;7883;52.554;13.364;2023-05-07T02:05:24;13.20;;;9.03;;
15563;SDS011;7883;52.554;13.364;2023-05-07T02:07:51;14.37;;;9.03;;
15563;SDS011;7883;52.554;13.364;2023-05-07T02:10:18;15.57;;;9.20;;
15563;SDS011;7883;52.554;13.364;2023-05-07T02:12:46;13.97;;;9.40;;
15563;SDS011;7883;52.554;13.364;2023-05-07T02:15:13;15.30;;;9.73;;
15563;SDS011;7883;52.554;13.364;2023-05-07T02:20:27;14.23;;;9.10;;
15563;SDS011;7883;52.554;13.364;2023-05-07T02:22:54;14.80;;;9.57;;
15563;SDS011;7883;52.554;13.364;2023-05-07T02:25:21;16.07;;;9.00;;
15563;SDS011;7883;52.554;13.364;2023-05-07T02:27:50;15.20;;;9.87;;
15563;SDS011;7883;52.554;13.364;2023-05-07T02:30:17;14.13;;;9.33;;
15563;SDS011;7883;52.554;13.364;2023-05-07T02:32:46;16.37;;;10.10;;
15563;SDS011;7883;52.554;13.364;2023-05-07T02:35:13;15.97;;;9.13;;
15563;SDS011;7883;52.554;13.364;2023-05-07T02:37:40;15.00;;;9.50;;
15563;SDS011;7883;52.554;13.364;2023-05-07T02:40:09;15.27;;;9.53;;
15563;SDS011;7883;52.554;13.364;2023-05-07T02:42:37;15.43;;;9.40;;
15563;SDS011;7883;52.554;13.364;2023-05-07T02:45:06;15.53;;;8.93;;
15563;SDS011;7883;52.554;13.364;2023-05-07T02:47:34;13.17;;;8.97;;
15563;SDS011;7883;52.554;13.364;2023-05-07T02:50:01;13.10;;;8.63;;
15563;SDS011;7883;52.554;13.364;2023-05-07T02:52:29;14.77;;;9.33;;
15563;SDS011;7883;52.554;13.364;2023-05-07T02:54:56;14.20;;;9.70;;
15563;SDS011;7883;52.554;13.364;2023-05-07T02:57:24;14.57;;;8.87;;
15563;SDS011;7883;52.554;13.364;2023-05-07T02:59:51;12.93;;;8.43;;
15563;SDS011;7883;52.554;13.364;2023-05-07T03:02:19;13.70;;;8.60;;
15563;SDS011;7883;52.554;13.364;2023-05-07T03:04:48;12.63;;;8.40;;
15563;SDS011;7883;52.554;13.364;2023-05-07T03:07:15;13.53;;;8.07;;
15563;SDS011;7883;52.554;13.364;2023-05-07T03:09:42;13.83;;;8.03;;
15563;SDS011;7883;52.554;13.364;2023-05-07T03:12:10;12.97;;;8.23;;
15563;SDS011;7883;52.554;13.364;2023-05-07T03:14:37;14.23;;;8.03;;
15563;SDS011;7883;52.554;13.364;2023-05-07T03:17:04;12.77;;;7.97;;
15563;SDS011;7883;52.554;13.364;2023-05-07T03:19:32;12.50;;;8.10;;
15563;SDS011;7883;52.554;13.364;2023-05-07T03:21:59;14.07;;;7.93;;
15563;SDS011;7883;52.554;13.364;2023-05-07T03:24:26;11.83;;;7.80;;
15563;SDS011;7883;52.554;13.364;2023-05-07T03:26:53;12.70;;;8.07;;
15563;SDS011;7883;52.554;13.364;2023-05-07T03:29:22;14.13;;;7.97;;
15563;SDS011;7883;52.554;13.364;2023-05-07T03:31:49;13.37;;;7.93;;
15563;SDS011;7883;52.554;13.364;2023-05-07T03:34:16;14.80;;;8.00;;
15563;SDS011;7883;52.554;13.364;2023-05-07T03:36:48;11.97;;;7.50;;
15563;SDS011;7883;52.554;13.364;2023-05-07T03:39:15;12.23;;;7.40;;
15563;SDS011;7883;52.554;13.364;2023-05-07T03:41:42;11.93;;;7.73;;
15563;SDS011;7883;52.554;13.364;2023-05-07T03:44:09;16.10;;;7.90;;
15563;SDS011;7883;52.554;13.364;2023-05-07T03:46:36;12.87;;;7.73;;
15563;SDS011;7883;52.554;13.364;2023-05-07T03:49:03;12.50;;;7.50;;
15563;SDS011;7883;52.554;13.364;2023-05-07T03:51:30;13.23;;;8.30;;
15563;SDS011;7883;52.554;13.364;2023-05-07T03:53:58;12.37;;;7.77;;
15563;SDS011;7883;52.554;13.364;2023-05-07T03:56:25;11.20;;;7.43;;
15563;SDS011;7883;52.554;13.364;2023-05-07T03:58:52;12.07;;;7.53;;
15563;SDS011;7883;52.554;13.364;2023-05-07T04:01:19;12.23;;;7.70;;
15563;SDS011;7883;52.554;13.364;2023-05-07T04:03:46;11.20;;;7.27;;
15563;SDS011;7883;52.554;13.364;2023-05-07T04:06:15;12.80;;;7.97;;
15563;SDS011;7883;52.554;13.364;2023-05-07T04:08:42;12.73;;;7.20;;
15563;SDS011;7883;52.554;13.364;2023-05-07T04:11:11;11.20;;;6.93;;
15563;SDS011;7883;52.554;13.364;2023-05-07T04:13:38;11.67;;;7.10;;
15563;SDS011;7883;52.554;13.364;2023-05-07T04:16:06;12.27;;;7.10;;
15563;SDS011;7883;52.554;13.364;2023-05-07T04:18:34;12.03;;;7.00;;
15563;SDS011;7883;52.554;13.364;2023-05-07T04:21:01;13.30;;;6.97;;
15563;SDS011;7883;52.554;13.364;2023-05-07T04:23:28;12.20;;;7.30;;
15563;SDS011;7883;52.554;13.364;2023-05-07T04:25:55;12.27;;;6.70;;
15563;SDS011;7883;52.554;13.364;2023-05-07T04:28:23;12.60;;;7.53;;
15563;SDS011;7883;52.554;13.364;2023-05-07T04:30:52;11.20;;;6.83;;
15563;SDS011;7883;52.554;13.364;2023-05-07T04:33:19;11.40;;;7.03;;
15563;SDS011;7883;52.554;13.364;2023-05-07T04:35:45;11.97;;;6.43;;
15563;SDS011;7883;52.554;13.364;2023-05-07T04:38:12;10.77;;;6.60;;
15563;SDS011;7883;52.554;13.364;2023-05-07T04:40:39;12.30;;;7.10;;
15563;SDS011;7883;52.554;13.364;2023-05-07T04:43:07;12.03;;;6.73;;
15563;SDS011;7883;52.554;13.364;2023-05-07T04:45:36;11.23;;;6.73;;
15563;SDS011;7883;52.554;13.364;2023-05-07T04:48:05;10.57;;;6.17;;
15563;SDS011;7883;52.554;13.364;2023-05-07T04:50:32;11.60;;;6.77;;
15563;SDS011;7883;52.554;13.364;2023-05-07T04:52:59;10.73;;;6.70;;
15563;SDS011;7883;52.554;13.364;2023-05-07T04:55:26;10.87;;;6.93;;
15563;SDS011;7883;52.554;13.364;2023-05-07T04:57:53;12.27;;;7.30;;
15563;SDS011;7883;52.554;13.364;2023-05-07T05:00:20;13.20;;;6.70;;
15563;SDS011;7883;52.554;13.364;2023-05-07T05:02:49;12.33;;;7.23;;
15563;SDS011;7883;52.554;13.364;2023-05-07T05:05:16;9.90;;;6.50;;
15563;SDS011;7883;52.554;13.364;2023-05-07T05:07:43;11.73;;;6.57;;
15563;SDS011;7883;52.554;13.364;2023-05-07T05:10:10;10.80;;;6.60;;
15563;SDS011;7883;52.554;13.364;2023-05-07T05:12:37;10.70;;;6.40;;
15563;SDS011;7883;52.554;13.364;2023-05-07T05:15:07;12.93;;;7.30;;
15563;SDS011;7883;52.554;13.364;2023-05-07T05:17:35;10.57;;;6.40;;
15563;SDS011;7883;52.554;13.364;2023-05-07T05:20:04;16.43;;;8.80;;
15563;SDS011;7883;52.554;13.364;2023-05-07T05:22:31;11.73;;;6.43;;
15563;SDS011;7883;52.554;13.364;2023-05-07T05:24:59;8.90;;;5.33;;
15563;SDS011;7883;52.554;13.364;2023-05-07T05:27:26;10.67;;;5.77;;
15563;SDS011;7883;52.554;13.364;2023-05-07T05:29:53;10.70;;;5.70;;
15563;SDS011;7883;52.554;13.364;2023-05-07T05:32:20;10.40;;;5.77;;
15563;SDS011;7883;52.554;13.364;2023-05-07T05:34:47;9.80;;;5.87;;
15563;SDS011;7883;52.554;13.364;2023-05-07T05:37:16;9.70;;;5.70;;
15563;SDS011;7883;52.554;13.364;2023-05-07T05:39:43;9.87;;;6.10;;
15563;SDS011;7883;52.554;13.364;2023-05-07T05:42:10;11.33;;;6.43;;
15563;SDS011;7883;52.554;13.364;2023-05-07T05:44:37;9.57;;;6.03;;
15563;SDS011;7883;52.554;13.364;2023-05-07T05:47:04;11.30;;;6.20;;
15563;SDS011;7883;52.554;13.364;2023-05-07T05:49:31;10.00;;;6.20;;
15563;SDS011;7883;52.554;13.364;2023-05-07T05:51:57;10.40;;;6.53;;
15563;SDS011;7883;52.554;13.364;2023-05-07T05:54:26;10.80;;;6.10;;
15563;SDS011;7883;52.554;13.364;2023-05-07T05:56:53;13.90;;;7.53;;
15563;SDS011;7883;52.554;13.364;2023-05-07T05:59:20;11.97;;;6.40;;
15563;SDS011;7883;52.554;13.364;2023-05-07T06:01:47;9.67;;;5.77;;
15563;SDS011;7883;52.554;13.364;2023-05-07T06:04:14;11.90;;;6.20;;
15563;SDS011;7883;52.554;13.364;2023-05-07T06:06:41;12.07;;;6.00;;
15563;SDS011;7883;52.554;13.364;2023-05-07T06:09:08;10.03;;;6.00;;
15563;SDS011;7883;52.554;13.364;2023-05-07T06:11:36;11.73;;;6.43;;
15563;SDS011;7883;52.554;13.364;2023-05-07T06:14:04;8.27;;;5.53;;
15563;SDS011;7883;52.554;13.364;2023-05-07T06:16:32;10.07;;;6.33;;
15563;SDS011;7883;52.554;13.364;2023-05-07T06:18:59;10.57;;;6.07;;
15563;SDS011;7883;52.554;13.364;2023-05-07T06:21:25;10.03;;;5.80;;
15563;SDS011;7883;52.554;13.364;2023-05-07T06:23:52;10.77;;;5.93;;
15563;SDS011;7883;52.554;13.364;2023-05-07T06:26:20;10.97;;;6.10;;
15563;SDS011;7883;52.554;13.364;2023-05-07T06:28:48;12.90;;;5.87;;
15563;SDS011;7883;52.554;13.364;2023-05-07T06:31:15;11.43;;;6.20;;
15563;SDS011;7883;52.554;13.364;2023-05-07T06:33:45;9.23;;;5.50;;
15563;SDS011;7883;52.554;13.364;2023-05-07T06:36:12;12.43;;;6.27;;
15563;SDS011;7883;52.554;13.364;2023-05-07T06:38:39;10.30;;;6.17;;
15563;SDS011;7883;52.554;13.364;2023-05-07T06:41:06;9.53;;;5.43;;
15563;SDS011;7883;52.554;13.364;2023-05-07T06:43:33;11.73;;;6.40;;
15563;SDS011;7883;52.554;13.364;2023-05-07T06:46:03;10.40;;;5.67;;
15563;SDS011;7883;52.554;13.364;2023-05-07T06:48:30;10.80;;;6.23;;
15563;SDS011;7883;52.554;13.364;2023-05-07T06:50:57;10.83;;;5.83;;
15563;SDS011;7883;52.554;13.364;2023-05-07T06:53:24;8.83;;;5.33;;
15563;SDS011;7883;52.554;13.364;2023-05-07T06:55:51;9.77;;;4.83;;
15563;SDS011;7883;52.554;13.364;2023-05-07T06:58:18;10.77;;;5.50;;
15563;SDS011;7883;52.554;13.364;2023-05-07T07:00:45;11.10;;;5.93;;
15563;SDS011;7883;52.554;13.364;2023-05-07T07:03:13;10.87;;;5.20;;
15563;SDS011;7883;52.554;13.364;2023-05-07T07:05:40;8.20;;;4.67;;
15563;SDS011;7883;52.554;13.364;2023-05-07T07:08:07;9.97;;;5.17;;
15563;SDS011;7883;52.554;13.364;2023-05-07T07:10:34;10.90;;;5.50;;
15563;SDS011;7883;52.554;13.364;2023-05-07T07:13:01;10.23;;;5.10;;
15563;SDS011;7883;52.554;13.364;2023-05-07T07:15:28;9.77;;;5.63;;
15563;SDS011;7883;52.554;13.364;2023-05-07T07:17:55;9.80;;;4.60;;
15563;SDS011;7883;52.554;13.364;2023-05-07T07:20:23;8.33;;;4.27;;
15563;SDS011;7883;52.554;13.364;2023-05-07T07:22:50;8.30;;;4.30;;
15563;SDS011;7883;52.554;13.364;2023-05-07T07:25:17;8.13;;;4.13;;
15563;SDS011;7883;52.554;13.364;2023-05-07T07:27:44;9.13;;;4.10;;
15563;SDS011;7883;52.554;13.364;2023-05-07T07:30:11;6.17;;;3.93;;
15563;SDS011;7883;52.554;13.364;2023-05-07T07:32:38;7.37;;;4.30;;
15563;SDS011;7883;52.554;13.364;2023-05-07T07:35:05;7.17;;;4.33;;
15563;SDS011;7883;52.554;13.364;2023-05-07T07:37:34;8.03;;;5.07;;
15563;SDS011;7883;52.554;13.364;2023-05-07T07:40:01;8.13;;;4.13;;
15563;SDS011;7883;52.554;13.364;2023-05-07T07:42:29;6.40;;;3.90;;
15563;SDS011;7883;52.554;13.364;2023-05-07T07:44:56;7.67;;;4.03;;
15563;SDS011;7883;52.554;13.364;2023-05-07T07:47:23;7.77;;;4.07;;
15563;SDS011;7883;52.554;13.364;2023-05-07T07:49:50;5.50;;;3.53;;
15563;SDS011;7883;52.554;13.364;2023-05-07T07:52:17;6.67;;;4.00;;
15563;SDS011;7883;52.554;13.364;2023-05-07T07:54:46;7.77;;;4.30;;
15563;SDS011;7883;52.554;13.364;2023-05-07T07:57:13;5.93;;;3.60;;
15563;SDS011;7883;52.554;13.364;2023-05-07T07:59:40;6.63;;;3.30;;
15563;SDS011;7883;52.554;13.364;2023-05-07T08:02:08;6.53;;;3.50;;
15563;SDS011;7883;52.554;13.364;2023-05-07T08:04:35;9.03;;;3.80;;
15563;SDS011;7883;52.554;13.364;2023-05-07T08:07:03;8.77;;;3.50;;
15563;SDS011;7883;52.554;13.364;2023-05-07T08:09:30;4.40;;;2.90;;
15563;SDS011;7883;52.554;13.364;2023-05-07T08:11:59;5.83;;;3.20;;
15563;SDS011;7883;52.554;13.364;2023-05-07T08:14:27;7.27;;;3.07;;
15563;SDS011;7883;52.554;13.364;2023-05-07T08:16:54;7.07;;;3.20;;
15563;SDS011;7883;52.554;13.364;2023-05-07T08:19:21;5.87;;;3.23;;
15563;SDS011;7883;52.554;13.364;2023-05-07T08:21:48;6.67;;;3.80;;
15563;SDS011;7883;52.554;13.364;2023-05-07T08:24:15;5.87;;;3.20;;
15563;SDS011;7883;52.554;13.364;2023-05-07T08:26:43;6.57;;;3.30;;
15563;SDS011;7883;52.554;13.364;2023-05-07T08:29:11;6.30;;;3.23;;
15563;SDS011;7883;52.554;13.364;2023-05-07T08:31:39;5.63;;;2.70;;
15563;SDS011;7883;52.554;13.364;2023-05-07T08:34:07;4.70;;;3.00;;
15563;SDS011;7883;52.554;13.364;2023-05-07T08:36:33;4.63;;;2.97;;
15563;SDS011;7883;52.554;13.364;2023-05-07T08:39:00;7.60;;;3.43;;
15563;SDS011;7883;52.554;13.364;2023-05-07T08:41:28;5.73;;;3.10;;
15563;SDS011;7883;52.554;13.364;2023-05-07T08:43:56;8.47;;;4.47;;
15563;SDS011;7883;52.554;13.364;2023-05-07T08:46:26;3.73;;;2.57;;
15563;SDS011;7883;52.554;13.364;2023-05-07T08:48:57;5.87;;;2.97;;
15563;SDS011;7883;52.554;13.364;2023-05-07T08:51:24;5.90;;;3.00;;
15563;SDS011;7883;52.554;13.364;2023-05-07T08:53:52;6.67;;;3.13;;
15563;SDS011;7883;52.554;13.364;2023-05-07T08:56:19;5.40;;;3.00;;
15563;SDS011;7883;52.554;13.364;2023-05-07T08:58:46;5.87;;;3.10;;
15563;SDS011;7883;52.554;13.364;2023-05-07T09:01:15;5.43;;;2.60;;
15563;SDS011;7883;52.554;13.364;2023-05-07T09:03:45;4.77;;;2.83;;
15563;SDS011;7883;52.554;13.364;2023-05-07T09:06:13;5.77;;;2.87;;
15563;SDS011;7883;52.554;13.364;2023-05-07T09:08:44;5.87;;;2.90;;
15563;SDS011;7883;52.554;13.364;2023-05-07T09:11:19;8.23;;;3.23;;
15563;SDS011;7883;52.554;13.364;2023-05-07T09:13:47;6.13;;;2.83;;
15563;SDS011;7883;52.554;13.364;2023-05-07T09:16:15;7.87;;;3.40;;
15563;SDS011;7883;52.554;13.364;2023-05-07T09:18:42;8.37;;;3.40;;
15563;SDS011;7883;52.554;13.364;2023-05-07T09:21:12;5.57;;;3.13;;
15563;SDS011;7883;52.554;13.364;2023-05-07T09:23:41;4.83;;;2.90;;
15563;SDS011;7883;52.554;13.364;2023-05-07T09:26:09;6.23;;;3.10;;
15563;SDS011;7883;52.554;13.364;2023-05-07T09:28:39;4.67;;;2.70;;
15563;SDS011;7883;52.554;13.364;2023-05-07T09:31:07;8.13;;;3.37;;
15563;SDS011;7883;52.554;13.364;2023-05-07T09:33:35;8.00;;;3.20;;
15563;SDS011;7883;52.554;13.364;2023-05-07T09:36:03;4.93;;;2.87;;
15563;SDS011;7883;52.554;13.364;2023-05-07T09:38:32;5.07;;;2.73;;
15563;SDS011;7883;52.554;13.364;2023-05-07T09:41:03;4.53;;;2.77;;
15563;SDS011;7883;52.554;13.364;2023-05-07T09:43:32;4.63;;;2.97;;
15563;SDS011;7883;52.554;13.364;2023-05-07T09:46:02;11.03;;;6.60;;
15563;SDS011;7883;52.554;13.364;2023-05-07T09:48:32;6.23;;;2.73;;
15563;SDS011;7883;52.554;13.364;2023-05-07T09:51:06;6.53;;;3.27;;
15563;SDS011;7883;52.554;13.364;2023-05-07T09:53:56;6.53;;;3.20;;
15563;SDS011;7883;52.554;13.364;2023-05-07T09:56:26;8.40;;;4.13;;
15563;SDS011;7883;52.554;13.364;2023-05-07T09:58:55;5.90;;;2.80;;
15563;SDS011;7883;52.554;13.364;2023-05-07T10:01:25;5.70;;;2.80;;
15563;SDS011;7883;52.554;13.364;2023-05-07T10:03:53;6.80;;;3.10;;
15563;SDS011;7883;52.554;13.364;2023-05-07T10:06:20;8.37;;;2.60;;
15563;SDS011;7883;52.554;13.364;2023-05-07T10:08:50;3.57;;;2.30;;
15563;SDS011;7883;52.554;13.364;2023-05-07T10:11:19;3.43;;;2.50;;
15563;SDS011;7883;52.554;13.364;2023-05-07T10:13:47;4.57;;;2.47;;
15563;SDS011;7883;52.554;13.364;2023-05-07T10:16:14;4.67;;;2.30;;
15563;SDS011;7883;52.554;13.364;2023-05-07T10:18:42;2.90;;;1.77;;
15563;SDS011;7883;52.554;13.364;2023-05-07T10:21:11;5.17;;;1.80;;
15563;SDS011;7883;52.554;13.364;2023-05-07T10:23:41;3.37;;;2.30;;
15563;SDS011;7883;52.554;13.364;2023-05-07T10:26:11;4.50;;;2.00;;
15563;SDS011;7883;52.554;13.364;2023-05-07T10:28:43;3.17;;;1.80;;
15563;SDS011;7883;52.554;13.364;2023-05-07T10:31:23;3.80;;;2.10;;
15563;SDS011;7883;52.554;13.364;2023-05-07T10:34:06;5.33;;;1.93;;
15563;SDS011;7883;52.554;13.364;2023-05-07T10:36:36;7.03;;;2.87;;
15563;SDS011;7883;52.554;13.364;2023-05-07T10:39:04;4.53;;;2.17;;
15563;SDS011;7883;52.554;13.364;2023-05-07T10:41:32;8.20;;;2.10;;
15563;SDS011;7883;52.554;13.364;2023-05-07T10:44:00;3.27;;;1.90;;
15563;SDS011;7883;52.554;13.364;2023-05-07T10:46:27;3.93;;;2.50;;
15563;SDS011;7883;52.554;13.364;2023-05-07T10:49:08;6.80;;;3.43;;
15563;SDS011;7883;52.554;13.364;2023-05-07T10:51:36;4.07;;;2.20;;
15563;SDS011;7883;52.554;13.364;2023-05-07T10:54:19;5.07;;;2.53;;
15563;SDS011;7883;52.554;13.364;2023-05-07T10:56:47;4.70;;;2.60;;
15563;SDS011;7883;52.554;13.364;2023-05-07T11:02:08;6.40;;;2.90;;
15563;SDS011;7883;52.554;13.364;2023-05-07T11:04:39;5.67;;;2.50;;
15563;SDS011;7883;52.554;13.364;2023-05-07T11:09:58;7.93;;;3.60;;
15563;SDS011;7883;52.554;13.364;2023-05-07T11:12:47;8.30;;;3.87;;
15563;SDS011;7883;52.554;13.364;2023-05-07T11:18:12;4.67;;;2.07;;
15563;SDS011;7883;52.554;13.364;2023-05-07T11:20:54;4.00;;;2.10;;
15563;SDS011;7883;52.554;13.364;2023-05-07T11:26:43;5.53;;;2.43;;
15563;SDS011;7883;52.554;13.364;2023-05-07T11:29:12;6.30;;;2.50;;
15563;SDS011;7883;52.554;13.364;2023-05-07T11:31:41;6.00;;;2.70;;
15563;SDS011;7883;52.554;13.364;2023-05-07T11:34:08;5.77;;;2.40;;
15563;SDS011;7883;52.554;13.364;2023-05-07T11:36:40;7.33;;;3.10;;
15563;SDS011;7883;52.554;13.364;2023-05-07T11:39:26;5.33;;;2.90;;
15563;SDS011;7883;52.554;13.364;2023-05-07T11:41:54;3.90;;;2.03;;
15563;SDS011;7883;52.554;13.364;2023-05-07T11:44:21;5.80;;;2.03;;
15563;SDS011;7883;52.554;13.364;2023-05-07T11:46:49;3.73;;;2.03;;
15563;SDS011;7883;52.554;13.364;2023-05-07T11:49:16;5.17;;;2.10;;
15563;SDS011;7883;52.554;13.364;2023-05-07T11:51:44;5.40;;;2.17;;
15563;SDS011;7883;52.554;13.364;2023-05-07T11:54:11;6.77;;;2.67;;
15563;SDS011;7883;52.554;13.364;2023-05-07T11:56:42;3.40;;;1.93;;
15563;SDS011;7883;52.554;13.364;2023-05-07T11:59:12;5.50;;;1.97;;
15563;SDS011;7883;52.554;13.364;2023-05-07T12:01:45;3.80;;;1.93;;
15563;SDS011;7883;52.554;13.364;2023-05-07T12:04:13;3.93;;;2.10;;
15563;SDS011;7883;52.554;13.364;2023-05-07T12:06:45;4.67;;;2.00;;
15563;SDS011;7883;52.554;13.364;2023-05-07T12:09:16;4.27;;;1.87;;
15563;SDS011;7883;52.554;13.364;2023-05-07T12:11:45;3.47;;;1.97;;
15563;SDS011;7883;52.554;13.364;2023-05-07T12:14:12;5.07;;;2.20;;
15563;SDS011;7883;52.554;13.364;2023-05-07T12:16:40;4.93;;;2.00;;
15563;SDS011;7883;52.554;13.364;2023-05-07T12:19:08;2.27;;;1.80;;
15563;SDS011;7883;52.554;13.364;2023-05-07T12:21:38;2.83;;;1.90;;
15563;SDS011;7883;52.554;13.364;2023-05-07T12:24:06;6.73;;;3.20;;
15563;SDS011;7883;52.554;13.364;2023-05-07T12:26:37;3.70;;;2.10;;
15563;SDS011;7883;52.554;13.364;2023-05-07T12:29:05;9.97;;;4.70;;
15563;SDS011;7883;52.554;13.364;2023-05-07T12:31:32;5.13;;;2.10;;
15563;SDS011;7883;52.554;13.364;2023-05-07T12:33:59;4.47;;;1.83;;
15563;SDS011;7883;52.554;13.364;2023-05-07T12:36:26;3.23;;;2.17;;
15563;SDS011;7883;52.554;13.364;2023-05-07T12:39:05;4.83;;;2.20;;
15563;SDS011;7883;52.554;13.364;2023-05-07T12:41:35;4.03;;;2.13;;
15563;SDS011;7883;52.554;13.364;2023-05-07T12:44:18;2.80;;;1.70;;
15563;SDS011;7883;52.554;13.364;2023-05-07T12:46:46;5.73;;;2.23;;
15563;SDS011;7883;52.554;13.364;2023-05-07T12:49:13;4.03;;;1.90;;
15563;SDS011;7883;52.554;13.364;2023-05-07T12:51:40;3.40;;;1.80;;
15563;SDS011;7883;52.554;13.364;2023-05-07T12:54:08;5.30;;;2.10;;
15563;SDS011;7883;52.554;13.364;2023-05-07T12:56:35;3.23;;;1.80;;
15563;SDS011;7883;52.554;13.364;2023-05-07T12:59:02;7.67;;;3.83;;
15563;SDS011;7883;52.554;13.364;2023-05-07T13:01:29;6.70;;;2.80;;
15563;SDS011;7883;52.554;13.364;2023-05-07T13:04:00;3.60;;;2.13;;
15563;SDS011;7883;52.554;13.364;2023-05-07T13:06:29;6.80;;;3.90;;
15563;SDS011;7883;52.554;13.364;2023-05-07T13:08:56;6.37;;;2.87;;
15563;SDS011;7883;52.554;13.364;2023-05-07T13:11:24;8.70;;;2.97;;
15563;SDS011;7883;52.554;13.364;2023-05-07T13:13:51;5.00;;;2.30;;
15563;SDS011;7883;52.554;13.364;2023-05-07T13:16:18;4.80;;;2.23;;
15563;SDS011;7883;52.554;13.364;2023-05-07T13:18:45;6.40;;;2.87;;
15563;SDS011;7883;52.554;13.364;2023-05-07T13:21:12;3.63;;;2.20;;
15563;SDS011;7883;52.554;13.364;2023-05-07T13:23:39;4.60;;;2.27;;
15563;SDS011;7883;52.554;13.364;2023-05-07T13:26:06;4.87;;;2.23;;
15563;SDS011;7883;52.554;13.364;2023-05-07T13:28:34;3.10;;;2.00;;
15563;SDS011;7883;52.554;13.364;2023-05-07T13:31:01;6.83;;;2.57;;
15563;SDS011;7883;52.554;13.364;2023-05-07T13:33:28;4.57;;;2.43;;
15563;SDS011;7883;52.554;13.364;2023-05-07T13:35:55;5.10;;;2.37;;
15563;SDS011;7883;52.554;13.364;2023-05-07T13:38:22;11.67;;;3.00;;
15563;SDS011;7883;52.554;13.364;2023-05-07T13:40:49;5.30;;;2.73;;
15563;SDS011;7883;52.554;13.364;2023-05-07T13:43:16;6.13;;;2.00;;
15563;SDS011;7883;52.554;13.364;2023-05-07T13:45:45;6.87;;;3.27;;
15563;SDS011;7883;52.554;13.364;2023-05-07T13:48:12;4.93;;;2.70;;
15563;SDS011;7883;52.554;13.364;2023-05-07T13:50:39;5.17;;;2.70;;
15563;SDS011;7883;52.554;13.364;2023-05-07T13:53:05;3.00;;;1.97;;
15563;SDS011;7883;52.554;13.364;2023-05-07T13:55:34;4.90;;;2.30;;
15563;SDS011;7883;52.554;13.364;2023-05-07T13:58:01;4.23;;;1.80;;
15563;SDS011;7883;52.554;13.364;2023-05-07T14:00:29;4.07;;;2.00;;
15563;SDS011;7883;52.554;13.364;2023-05-07T14:02:57;13.33;;;7.67;;
15563;SDS011;7883;52.554;13.364;2023-05-07T14:05:24;10.33;;;5.43;;
15563;SDS011;7883;52.554;13.364;2023-05-07T14:07:53;7.23;;;3.03;;
15563;SDS011;7883;52.554;13.364;2023-05-07T14:10:20;4.30;;;2.40;;
15563;SDS011;7883;52.554;13.364;2023-05-07T14:12:47;5.33;;;2.17;;
15563;SDS011;7883;52.554;13.364;2023-05-07T14:15:14;3.63;;;2.20;;
15563;SDS011;7883;52.554;13.364;2023-05-07T14:17:41;4.67;;;2.13;;
15563;SDS011;7883;52.554;13.364;2023-05-07T14:20:10;7.17;;;3.20;;
15563;SDS011;7883;52.554;13.364;2023-05-07T14:22:38;5.47;;;2.97;;
15563;SDS011;7883;52.554;13.364;2023-05-07T14:25:05;4.30;;;2.23;;
15563;SDS011;7883;52.554;13.364;2023-05-07T14:27:34;10.03;;;4.17;;
15563;SDS011;7883;52.554;13.364;2023-05-07T14:30:01;7.07;;;2.60;;
15563;SDS011;7883;52.554;13.364;2023-05-07T14:32:28;5.57;;;2.60;;
15563;SDS011;7883;52.554;13.364;2023-05-07T14:34:55;3.33;;;2.27;;
15563;SDS011;7883;52.554;13.364;2023-05-07T14:37:23;4.93;;;2.63;;
15563;SDS011;7883;52.554;13.364;2023-05-07T14:39:50;10.50;;;5.30;;
15563;SDS011;7883;52.554;13.364;2023-05-07T14:42:17;8.00;;;2.90;;
15563;SDS011;7883;52.554;13.364;2023-05-07T14:44:44;8.20;;;2.57;;
15563;SDS011;7883;52.554;13.364;2023-05-07T14:47:12;6.60;;;3.30;;
15563;SDS011;7883;52.554;13.364;2023-05-07T14:49:40;4.10;;;2.67;;
15563;SDS011;7883;52.554;13.364;2023-05-07T14:52:10;4.97;;;2.33;;
15563;SDS011;7883;52.554;13.364;2023-05-07T14:54:39;6.77;;;2.67;;
15563;SDS011;7883;52.554;13.364;2023-05-07T14:57:06;9.30;;;3.23;;
15563;SDS011;7883;52.554;13.364;2023-05-07T14:59:35;6.90;;;3.33;;
15563;SDS011;7883;52.554;13.364;2023-05-07T15:02:03;3.97;;;2.10;;